Time;durP1;ratioP1;P1;durP2;ratioP2;P2;SDS_P1;SDS_P2;PMS_P1;PMS_P2;Temp;Humidity;BMP_temperature;BMP_pressure;BME280_temperature;BME280_humidity;BME280_pressure;Samples;Min_cycle;Max_cycle;Signal;HPM_P1;HPM_P2
2022/05/04 00:00:42;;;;;;;;;;;;;;;24.43;8.93;100398.22;5137622;27;20360;-77
2022/05/04 00:03:07;;;;;;;;;;;;;;;24.43;8.91;100402.84;5136858;27;19919;-75
2022/05/04 00:05:32;;;;;;;;;;;;;;;24.42;8.97;100401.22;5136875;27;19916;-76
2022/05/04 00:07:58;;;;;;;;;;;;;;;24.42;9.13;100398.47;5136844;27;20358;-75
2022/05/04 00:10:24;;;;;;;;;;;;;;;24.41;9.23;100394.94;5136280;27;19962;-76
2022/05/04 00:12:49;;;;;;;;;;;;;;;24.40;9.25;100404.22;5136922;27;19919;-78
2022/05/04 00:15:14;;;;;;;;;;;;;;;24.40;9.16;100409.69;5136519;27;19915;-76
2022/05/04 00:17:40;;;;;;;;;;;;;;;24.40;9.29;100409.69;5136717;27;19915;-77
2022/05/04 00:20:05;;;;;;;;;;;;;;;24.40;8.92;100409.69;5136195;27;20410;-75
2022/05/04 00:22:31;;;;;;;;;;;;;;;24.41;9.24;100413.25;5136118;27;19937;-76
2022/05/04 00:24:56;;;;;;;;;;;;;;;24.40;9.27;100414.34;5136041;27;19926;-76
2022/05/04 00:27:21;;;;;;;;;;;;;;;24.40;9.23;100422.53;5136495;27;19919;-76
2022/05/04 00:29:46;;;;;;;;;;;;;;;24.40;9.13;100425.25;5136193;27;19919;-76
2022/05/04 00:32:12;;;;;;;;;;;;;;;24.37;9.26;100421.19;5136232;27;20346;-78
2022/05/04 00:34:38;;;;;;;;;;;;;;;24.38;9.29;100422.81;5135904;27;19919;-75
2022/05/04 00:37:03;;;;;;;;;;;;;;;24.37;9.20;100432.13;5136109;27;19922;-77
2022/05/04 00:39:28;;;;;;;;;;;;;;;24.37;9.26;100432.94;5136403;27;19922;-76
2022/05/04 00:41:54;;;;;;;;;;;;;;;24.37;9.03;100432.94;5136065;27;19979;-75
2022/05/04 00:44:19;;;;;;;;;;;;;;;24.38;9.26;100436.47;5135741;27;19984;-76
2022/05/04 00:46:44;;;;;;;;;;;;;;;24.37;9.14;100437.56;5135752;27;19921;-76
2022/05/04 00:49:10;;;;;;;;;;;;;;;24.36;9.20;100444.94;5135677;27;20006;-78
2022/05/04 00:51:35;;;;;;;;;;;;;;;24.36;9.07;100441.41;5117532;27;19922;-75
2022/05/04 00:54:00;;;;;;;;;;;;;;;24.36;9.04;100444.13;5116326;27;19919;-76
2022/05/04 00:56:25;;;;;;;;;;;;;;;24.36;9.21;100447.66;5135548;27;19922;-76
2022/05/04 00:58:56;;;;;;;;;;;;;;;24.36;9.27;100455.06;5135624;27;19964;-76
2022/05/04 01:01:22;;;;;;;;;;;;;;;24.35;9.32;100445.22;5135462;27;19922;-77
2022/05/04 01:03:47;;;;;;;;;;;;;;;24.34;9.05;100454.50;5135636;27;20001;-76
2022/05/04 01:06:12;;;;;;;;;;;;;;;24.35;9.27;100450.66;5135372;27;20002;-77
2022/05/04 01:08:37;;;;;;;;;;;;;;;24.34;9.14;100454.50;5135752;27;19942;-74
2022/05/04 01:11:03;;;;;;;;;;;;;;;24.34;9.21;100463.53;5135550;27;20276;-76
2022/05/04 01:13:28;;;;;;;;;;;;;;;24.34;9.27;100460.78;5117221;27;19916;-74
2022/05/04 01:15:53;;;;;;;;;;;;;;;24.34;9.29;100459.97;5135819;27;20346;-76
2022/05/04 01:18:19;;;;;;;;;;;;;;;24.34;9.16;100465.44;5135588;27;19922;-77
2022/05/04 01:20:44;;;;;;;;;;;;;;;24.32;9.24;100457.53;5135139;27;19915;-76
2022/05/04 01:23:09;;;;;;;;;;;;;;;24.32;9.25;100467.63;5135433;27;19924;-77
2022/05/04 01:25:35;;;;;;;;;;;;;;;24.33;9.29;100469.25;5134750;27;19919;-75
2022/05/04 01:28:01;;;;;;;;;;;;;;;24.32;9.26;100473.91;5135033;27;19920;-78
2022/05/04 01:30:26;;;;;;;;;;;;;;;24.32;9.20;100471.19;5134901;27;20014;-75
2022/05/04 01:32:52;;;;;;;;;;;;;;;24.31;9.10;100474.19;5135408;27;19965;-77
2022/05/04 01:35:17;;;;;;;;;;;;;;;24.32;9.25;100478.56;5135221;27;20357;-76
2022/05/04 01:37:42;;;;;;;;;;;;;;;24.31;9.06;100479.66;5135121;27;20025;-75
2022/05/04 01:40:08;;;;;;;;;;;;;;;24.31;9.10;100483.19;5134986;27;19919;-78
2022/05/04 01:42:33;;;;;;;;;;;;;;;24.32;9.08;100481.28;5134980;27;19916;-76
2022/05/04 01:44:58;;;;;;;;;;;;;;;24.31;9.40;100493.31;5135170;27;19916;-78
2022/05/04 01:47:24;;;;;;;;;;;;;;;24.31;9.19;100493.31;5116462;28;19919;-76
2022/05/04 01:49:49;;;;;;;;;;;;;;;24.31;9.26;100493.31;5135091;28;19916;-77
2022/05/04 01:52:14;;;;;;;;;;;;;;;24.30;9.26;100497.13;5134818;28;19915;-76
2022/05/04 01:54:40;;;;;;;;;;;;;;;24.30;9.43;100491.66;5135060;28;19924;-77
2022/05/04 01:57:05;;;;;;;;;;;;;;;24.28;9.40;100494.66;5135093;28;20383;-75
2022/05/04 01:59:30;;;;;;;;;;;;;;;24.28;9.37;100494.66;5135173;28;19916;-77
2022/05/04 02:01:55;;;;;;;;;;;;;;;24.29;9.45;100503.69;5135039;28;19915;-75
2022/05/04 02:04:22;;;;;;;;;;;;;;;24.28;9.27;100505.56;5134523;27;19915;-76
2022/05/04 02:06:47;;;;;;;;;;;;;;;24.28;9.40;100510.22;5138956;27;19992;-76
2022/05/04 02:09:12;;;;;;;;;;;;;;;24.28;9.27;100504.78;5139261;27;19943;-76
2022/05/04 02:11:38;;;;;;;;;;;;;;;24.27;9.59;100509.41;5138941;27;20402;-76
2022/05/04 02:14:03;;;;;;;;;;;;;;;24.28;9.50;100515.69;5120683;27;19915;-75
2022/05/04 02:16:28;;;;;;;;;;;;;;;24.27;9.58;100511.34;5138761;27;19938;-76
2022/05/04 02:18:54;;;;;;;;;;;;;;;24.26;9.32;100518.69;5138942;27;20006;-74
2022/05/04 02:21:19;;;;;;;;;;;;;;;24.26;9.60;100524.16;5138995;27;20373;-76
2022/05/04 02:23:44;;;;;;;;;;;;;;;24.23;9.32;100512.97;5138516;27;20257;-76
2022/05/04 02:26:10;;;;;;;;;;;;;;;24.26;9.54;100532.34;5138473;27;19963;-76
2022/05/04 02:28:35;;;;;;;;;;;;;;;24.26;9.64;100534.28;5120103;27;19915;-75
2022/05/04 02:31:00;;;;;;;;;;;;;;;24.25;9.41;100533.47;5138717;27;19929;-76
2022/05/04 02:33:25;;;;;;;;;;;;;;;24.25;9.50;100536.19;5138168;27;19916;-78
2022/05/04 02:38:35;;;;;;;;;;;;;;;24.25;9.60;100549.00;5138363;27;20303;-76
2022/05/04 02:41:00;;;;;;;;;;;;;;;24.25;9.59;100543.53;5137957;27;19915;-77
2022/05/04 02:43:26;;;;;;;;;;;;;;;24.24;9.57;100550.94;5119591;27;19926;-75
2022/05/04 02:45:51;;;;;;;;;;;;;;;24.25;9.57;100549.00;5119775;27;20486;-77
2022/05/04 02:48:17;;;;;;;;;;;;;;;24.25;9.71;100546.28;5138479;27;20010;-74
2022/05/04 02:50:42;;;;;;;;;;;;;;;24.24;9.68;100550.94;5138149;27;19916;-76
2022/05/04 02:53:07;;;;;;;;;;;;;;;24.25;9.39;100551.75;5138188;27;20030;-76
2022/05/04 02:55:33;;;;;;;;;;;;;;;24.24;9.54;100548.19;5138153;27;19916;-75
2022/05/04 02:57:58;;;;;;;;;;;;;;;24.23;9.54;100557.47;5138612;27;19923;-77
2022/05/04 03:00:25;;;;;;;;;;;;;;;24.23;9.55;100562.94;5119585;27;19919;-75
2022/05/04 03:02:50;;;;;;;;;;;;;;;24.24;9.77;100552.84;5138121;27;19922;-77
2022/05/04 03:05:16;;;;;;;;;;;;;;;24.17;9.53;100548.47;5137708;27;20319;-74
2022/05/04 03:07:41;;;;;;;;;;;;;;;24.30;9.65;100568.97;5137996;27;19994;-76
2022/05/04 03:10:07;;;;;;;;;;;;;;;24.32;9.63;100565.97;5137728;27;19915;-75
2022/05/04 03:12:32;;;;;;;;;;;;;;;24.35;9.84;100565.38;5137972;27;19916;-76
2022/05/04 03:14:57;;;;;;;;;;;;;;;24.36;9.72;100573.31;5137436;27;19965;-75
2022/05/04 03:17:22;;;;;;;;;;;;;;;24.40;9.69;100572.75;5136661;27;19923;-76
2022/05/04 03:19:48;;;;;;;;;;;;;;;24.46;9.67;100574.41;5137300;27;19919;-75
2022/05/04 03:22:13;;;;;;;;;;;;;;;24.47;9.68;100579.56;5137800;27;19916;-76
2022/05/04 03:24:38;;;;;;;;;;;;;;;24.51;9.77;100577.94;5137265;27;19938;-78
2022/05/04 03:27:04;;;;;;;;;;;;;;;24.53;9.87;100575.72;5137487;27;19922;-74
2022/05/04 03:29:29;;;;;;;;;;;;;;;24.55;9.75;100581.75;5138047;27;20311;-77
2022/05/04 03:31:54;;;;;;;;;;;;;;;24.55;9.92;100584.50;5137452;27;20353;-76
2022/05/04 03:34:20;;;;;;;;;;;;;;;24.57;9.96;100588.88;5137050;27;19915;-77
2022/05/04 03:36:45;;;;;;;;;;;;;;;24.61;9.75;100589.97;5137301;27;19916;-74
2022/05/04 03:39:11;;;;;;;;;;;;;;;24.61;9.96;100579.88;5137016;27;19922;-76
2022/05/04 03:41:36;;;;;;;;;;;;;;;24.66;9.93;100592.69;5137442;27;19916;-75
2022/05/04 03:44:01;;;;;;;;;;;;;;;24.68;9.92;100596.78;5137431;27;19922;-74
2022/05/04 03:46:27;;;;;;;;;;;;;;;24.71;9.90;100600.84;5136859;27;19977;-77
2022/05/04 03:48:53;;;;;;;;;;;;;;;24.74;10.13;100605.78;5137199;27;19915;-75
2022/05/04 03:51:21;;;;;;;;;;;;;;;24.76;9.93;100602.78;5137043;27;20269;-76
2022/05/04 03:53:47;;;;;;;;;;;;;;;24.78;10.03;100612.31;5137796;27;19919;-74
2022/05/04 03:56:12;;;;;;;;;;;;;;;24.80;9.99;100610.16;5136793;27;20387;-75
2022/05/04 03:58:37;;;;;;;;;;;;;;;24.85;10.08;100612.88;5136972;27;19925;-79
2022/05/04 04:01:03;;;;;;;;;;;;;;;24.83;10.21;100609.56;5136555;27;19916;-76
2022/05/04 04:03:28;;;;;;;;;;;;;;;24.88;9.99;100616.94;5136530;27;19998;-77
2022/05/04 04:05:53;;;;;;;;;;;;;;;24.88;10.09;100616.94;5136385;27;19916;-75
2022/05/04 04:08:19;;;;;;;;;;;;;;;24.90;10.33;100621.03;5136718;27;19951;-76
2022/05/04 04:10:44;;;;;;;;;;;;;;;24.93;10.26;100625.94;5136293;27;19921;-76
2022/05/04 04:13:09;;;;;;;;;;;;;;;24.96;10.20;100630.06;5136334;27;19940;-75
2022/05/04 04:15:34;;;;;;;;;;;;;;;24.99;10.14;100637.69;5137074;27;19915;-78
2022/05/04 04:18:00;;;;;;;;;;;;;;;24.99;10.32;100634.97;5136968;27;19915;-75
2022/05/04 04:23:09;;;;;;;;;;;;;;;25.02;10.17;100639.03;5136843;27;19935;-77
2022/05/04 04:25:35;;;;;;;;;;;;;;;25.05;10.32;100633.03;5117711;27;19920;-74
2022/05/04 04:28:00;;;;;;;;;;;;;;;25.06;10.07;100642.84;5117936;27;20426;-75
2022/05/04 04:30:25;;;;;;;;;;;;;;;25.08;10.18;100648.88;5136761;27;19915;-77
2022/05/04 04:32:50;;;;;;;;;;;;;;;25.09;10.08;100653.25;5136522;27;20375;-74
2022/05/04 04:35:16;;;;;;;;;;;;;;;25.11;10.19;100651.03;5136251;27;19916;-76
2022/05/04 04:37:43;;;;;;;;;;;;;;;25.07;10.26;100652.69;5136430;27;20483;-76
2022/05/04 04:40:08;;;;;;;;;;;;;;;25.14;10.17;100658.69;5136643;27;19915;-74
2022/05/04 04:42:33;;;;;;;;;;;;;;;25.16;10.24;100667.44;5135956;27;19938;-77
2022/05/04 04:44:59;;;;;;;;;;;;;;;25.18;10.18;100668.00;5135622;27;19965;-77
2022/05/04 04:47:25;;;;;;;;;;;;;;;25.23;10.29;100667.97;5135660;27;19919;-74
2022/05/04 04:49:51;;;;;;;;;;;;;;;25.28;10.07;100678.09;5135839;27;19922;-75
2022/05/04 04:52:16;;;;;;;;;;;;;;;25.28;10.10;100678.94;5135628;27;19915;-75
2022/05/04 04:54:42;;;;;;;;;;;;;;;25.30;9.97;100682.19;5135459;27;19915;-75
2022/05/04 04:57:07;;;;;;;;;;;;;;;25.30;10.10;100675.88;5135317;27;19916;-75
2022/05/04 04:59:32;;;;;;;;;;;;;;;25.32;10.39;100681.09;5135202;27;19915;-75
2022/05/04 05:01:57;;;;;;;;;;;;;;;25.27;10.29;100680.00;5135626;27;19968;-75
2022/05/04 05:04:23;;;;;;;;;;;;;;;25.33;10.09;100688.19;5135486;27;20365;-76
2022/05/04 05:06:48;;;;;;;;;;;;;;;25.35;10.11;100686.00;5135313;27;19915;-75
2022/05/04 05:09:13;;;;;;;;;;;;;;;25.33;9.92;100690.94;5135234;27;19922;-76
2022/05/04 05:11:38;;;;;;;;;;;;;;;25.38;10.06;100693.66;5117734;27;19916;-76
2022/05/04 05:16:48;;;;;;;;;;;;;;;25.39;10.01;100698.84;5135225;27;19925;-75
2022/05/04 05:19:13;;;;;;;;;;;;;;;25.43;10.01;100699.91;5134932;27;20002;-76
2022/05/04 05:21:38;;;;;;;;;;;;;;;25.44;10.03;100704.31;5134557;27;19915;-75
2022/05/04 05:24:05;;;;;;;;;;;;;;;25.45;10.21;100707.84;5134576;27;19920;-76
2022/05/04 05:26:30;;;;;;;;;;;;;;;25.46;10.15;100704.03;5134985;27;20006;-76
2022/05/04 05:28:56;;;;;;;;;;;;;;;25.48;10.24;100701.81;5134916;27;19915;-76
2022/05/04 05:31:22;;;;;;;;;;;;;;;25.53;10.14;100714.69;5134532;27;19916;-76
2022/05/04 05:33:47;;;;;;;;;;;;;;;25.56;9.93;100717.66;5134374;27;19919;-76
2022/05/04 05:36:12;;;;;;;;;;;;;;;25.55;10.02;100716.03;5134284;27;19923;-77
2022/05/04 05:38:37;;;;;;;;;;;;;;;25.59;9.94;100719.81;5135160;27;20362;-76
2022/05/04 05:41:03;;;;;;;;;;;;;;;25.62;9.94;100712.97;5133500;27;19931;-76
2022/05/04 05:43:28;;;;;;;;;;;;;;;25.67;9.91;100724.72;5134167;27;19915;-75
2022/05/04 05:45:53;;;;;;;;;;;;;;;25.67;9.81;100721.97;5134300;27;20052;-74
2022/05/04 05:48:20;;;;;;;;;;;;;;;25.64;9.68;100728.00;5134269;28;19959;-76
2022/05/04 05:50:46;;;;;;;;;;;;;;;25.66;9.70;100733.22;5134495;28;19916;-76
2022/05/04 05:53:14;;;;;;;;;;;;;;;25.68;9.81;100725.53;5116461;28;19915;-75
2022/05/04 05:55:39;;;;;;;;;;;;;;;25.76;9.78;100732.34;5134580;28;19962;-76
2022/05/04 05:58:05;;;;;;;;;;;;;;;25.73;9.89;100735.66;5135425;28;19938;-79
2022/05/04 06:00:30;;;;;;;;;;;;;;;25.77;10.00;100725.78;5134765;28;19915;-75
2022/05/04 06:02:55;;;;;;;;;;;;;;;25.77;9.67;100729.34;5116513;28;19915;-76
2022/05/04 06:05:20;;;;;;;;;;;;;;;25.81;9.74;100726.84;5134975;28;19916;-76
2022/05/04 06:07:46;;;;;;;;;;;;;;;25.84;9.99;100726.28;5135039;28;19926;-77
2022/05/04 06:10:11;;;;;;;;;;;;;;;25.83;9.83;100730.94;5134558;28;19916;-74
2022/05/04 06:12:38;;;;;;;;;;;;;;;25.91;9.85;100732.28;5134529;28;20310;-77
2022/05/04 06:15:04;;;;;;;;;;;;;;;25.95;9.91;100738.03;5134483;28;20020;-75
2022/05/04 06:17:29;;;;;;;;;;;;;;;25.94;9.77;100737.22;5135068;28;20292;-74
2022/05/04 06:19:54;;;;;;;;;;;;;;;25.94;9.79;100745.44;5134159;28;19959;-77
2022/05/04 06:22:19;;;;;;;;;;;;;;;25.99;9.70;100750.88;5134782;28;19922;-76
2022/05/04 06:24:45;;;;;;;;;;;;;;;25.98;9.92;100740.22;5134726;28;19924;-75
2022/05/04 06:27:10;;;;;;;;;;;;;;;25.96;9.62;100745.97;5115879;28;19926;-75
2022/05/04 06:35:03;;;;;;;;;;;;;;;26.05;9.39;100749.75;5134246;28;20390;-77
2022/05/04 06:37:29;;;;;;;;;;;;;;;26.03;9.44;100748.41;5116110;28;19995;-74
2022/05/04 06:39:54;;;;;;;;;;;;;;;26.01;9.18;100754.16;5134359;28;19994;-76
2022/05/04 06:42:19;;;;;;;;;;;;;;;26.05;9.14;100760.69;5134414;28;20325;-75
2022/05/04 06:44:45;;;;;;;;;;;;;;;26.08;9.27;100753.84;5116152;28;19980;-79
2022/05/04 06:47:10;;;;;;;;;;;;;;;26.08;9.30;100758.50;5116288;28;20325;-74
2022/05/04 06:49:35;;;;;;;;;;;;;;;26.11;9.14;100768.88;5133827;28;19922;-76
2022/05/04 06:52:00;;;;;;;;;;;;;;;26.11;9.21;100766.97;5137208;27;19915;-78
2022/05/04 06:54:26;;;;;;;;;;;;;;;26.12;9.14;100768.59;5138188;27;20365;-75
2022/05/04 06:56:51;;;;;;;;;;;;;;;26.15;9.10;100772.72;5137470;27;19938;-76
2022/05/04 06:59:17;;;;;;;;;;;;;;;26.14;8.97;100769.13;5138042;27;19915;-77
2022/05/04 07:01:42;;;;;;;;;;;;;;;26.21;8.97;100772.38;5137647;27;19946;-76
2022/05/04 07:04:07;;;;;;;;;;;;;;;26.19;8.87;100771.84;5137915;27;19927;-75
2022/05/04 07:06:32;;;;;;;;;;;;;;;26.22;8.88;100775.94;5137855;27;19915;-76
2022/05/04 07:08:58;;;;;;;;;;;;;;;26.29;8.74;100776.44;5137790;27;20288;-76
2022/05/04 07:11:23;;;;;;;;;;;;;;;26.23;8.86;100786.63;5137274;27;19915;-74
2022/05/04 07:13:48;;;;;;;;;;;;;;;26.21;8.86;100788.00;5138101;27;19922;-78
2022/05/04 07:16:15;;;;;;;;;;;;;;;26.28;9.04;100791.25;5119163;27;19916;-77
2022/05/04 07:18:40;;;;;;;;;;;;;;;26.35;8.94;100788.19;5137661;27;19998;-73
2022/05/04 07:21:05;;;;;;;;;;;;;;;26.30;8.78;100793.69;5137891;27;20352;-75
2022/05/04 07:23:30;;;;;;;;;;;;;;;26.32;8.76;100791.50;5137388;27;20012;-75
2022/05/04 07:25:56;;;;;;;;;;;;;;;26.31;8.82;100792.59;5136875;27;20270;-75
2022/05/04 07:28:21;;;;;;;;;;;;;;;26.30;8.89;100794.53;5137059;27;19916;-76
2022/05/04 07:30:46;;;;;;;;;;;;;;;26.31;8.86;100790.69;5137430;27;19919;-78
2022/05/04 07:33:11;;;;;;;;;;;;;;;26.35;8.96;100797.22;5119135;27;19915;-76
2022/05/04 07:35:37;;;;;;;;;;;;;;;26.34;9.10;100794.78;5137160;27;20380;-75
2022/05/04 07:38:02;;;;;;;;;;;;;;;26.31;8.99;100804.38;5137536;27;19915;-75
2022/05/04 07:43:11;;;;;;;;;;;;;;;26.36;8.97;100798.06;5137793;27;20386;-76
2022/05/04 07:45:36;;;;;;;;;;;;;;;26.39;9.41;100803.78;5137681;27;19959;-77
2022/05/04 07:48:01;;;;;;;;;;;;;;;26.45;9.35;100803.75;5138029;27;19922;-77
2022/05/04 07:50:28;;;;;;;;;;;;;;;26.36;9.32;100804.34;5118699;27;19972;-74
2022/05/04 07:52:53;;;;;;;;;;;;;;;26.37;9.26;100800.53;5136982;27;19980;-78
2022/05/04 07:55:19;;;;;;;;;;;;;;;26.34;9.29;100805.75;5119794;27;19915;-76
2022/05/04 07:57:47;;;;;;;;;;;;;;;26.35;9.13;100804.63;5138279;27;20341;-77
2022/05/04 08:05:40;;;;;;;;;;;;;;;26.36;9.52;100807.09;5137969;27;19922;-76
2022/05/04 08:08:05;;;;;;;;;;;;;;;26.37;9.40;100806.00;5137409;27;20328;-74
2022/05/04 08:10:31;;;;;;;;;;;;;;;26.42;9.02;100802.38;5137898;27;20396;-74
2022/05/04 08:12:58;;;;;;;;;;;;;;;26.47;8.83;100807.03;5137247;27;20215;-75
2022/05/04 08:15:24;;;;;;;;;;;;;;;26.40;8.85;100808.16;5137995;27;19982;-76
2022/05/04 08:17:49;;;;;;;;;;;;;;;26.41;8.88;100811.72;5119394;27;20393;-76
2022/05/04 08:20:14;;;;;;;;;;;;;;;26.48;8.70;100808.69;5139112;27;20342;-76
2022/05/04 08:22:40;;;;;;;;;;;;;;;26.47;8.77;100813.31;5139549;27;19922;-76
2022/05/04 08:25:05;;;;;;;;;;;;;;;26.54;8.56;100815.75;5143804;27;19932;-78
2022/05/04 08:27:32;;;;;;;;;;;;;;;26.52;8.92;100818.75;5149131;27;19916;-78
2022/05/04 08:29:58;;;;;;;;;;;;;;;26.56;8.88;100824.50;5140707;27;19958;-77
2022/05/04 08:32:26;;;;;;;;;;;;;;;26.53;8.92;100819.59;5144635;27;19916;-77
2022/05/04 08:34:51;;;;;;;;;;;;;;;26.53;8.72;100814.13;5125993;27;19924;-76
2022/05/04 08:37:17;;;;;;;;;;;;;;;26.50;8.75;100820.16;5140608;27;19968;-77
2022/05/04 08:39:42;;;;;;;;;;;;;;;26.52;8.99;100823.44;5141009;27;19916;-78
2022/05/04 08:42:08;;;;;;;;;;;;;;;26.49;8.71;100804.81;5140595;27;20258;-76
2022/05/04 08:44:33;;;;;;;;;;;;;;;26.54;8.71;100821.22;5140927;27;19923;-76
2022/05/04 08:46:59;;;;;;;;;;;;;;;26.57;8.79;100815.19;5122407;27;19972;-77
2022/05/04 08:49:24;;;;;;;;;;;;;;;26.59;8.63;100829.41;5124288;27;20357;-77
2022/05/04 08:51:49;;;;;;;;;;;;;;;26.54;8.73;100827.50;5122283;27;19915;-77
2022/05/04 08:54:15;;;;;;;;;;;;;;;26.58;8.60;100822.31;5126981;27;19958;-76
2022/05/04 08:56:40;;;;;;;;;;;;;;;26.60;8.64;100825.56;5124324;27;19915;-76
2022/05/04 08:59:05;;;;;;;;;;;;;;;26.64;8.66;100831.34;5145084;27;20387;-78
2022/05/04 09:01:31;;;;;;;;;;;;;;;26.58;8.69;100823.13;5126069;27;19916;-77
2022/05/04 09:03:57;;;;;;;;;;;;;;;26.56;8.79;100821.75;5143204;27;19939;-76
2022/05/04 09:06:26;;;;;;;;;;;;;;;26.60;8.32;100825.56;5127483;27;19916;-75
2022/05/04 09:09:08;;;;;;;;;;;;;;;26.60;8.57;100829.13;5147161;27;19916;-76
2022/05/04 09:11:35;;;;;;;;;;;;;;;26.62;8.55;100834.38;5152016;27;19915;-74
2022/05/04 09:14:05;;;;;;;;;;;;;;;26.40;8.52;100830.06;5132022;28;19926;-75
2022/05/04 09:16:32;;;;;;;;;;;;;;;26.49;8.56;100824.84;5126796;27;19942;-75
2022/05/04 09:19:00;;;;;;;;;;;;;;;26.50;8.46;100825.66;5138763;27;20369;-76
2022/05/04 09:21:26;;;;;;;;;;;;;;;26.64;8.66;100821.19;5138046;27;19972;-76
2022/05/04 09:23:54;;;;;;;;;;;;;;;26.63;8.75;100822.31;5118097;27;19927;-76
2022/05/04 09:26:20;;;;;;;;;;;;;;;26.59;8.60;100818.44;5137275;27;20230;-78
2022/05/04 09:28:49;;;;;;;;;;;;;;;26.65;8.53;100827.47;5135657;27;19922;-75
2022/05/04 09:31:14;;;;;;;;;;;;;;;26.63;8.61;100830.53;5117228;27;19915;-74
2022/05/04 09:33:40;;;;;;;;;;;;;;;26.63;8.51;100830.53;5136554;27;20362;-75
2022/05/04 09:36:05;;;;;;;;;;;;;;;26.75;8.50;100830.97;5137367;27;19915;-74
2022/05/04 09:46:45;;;;;;;;;;;;;;;27.04;8.29;100824.69;5136024;27;19927;-74
2022/05/04 09:49:14;;;;;;;;;;;;;;;27.14;8.14;100829.28;5135138;28;19920;-75
2022/05/04 09:51:39;;;;;;;;;;;;;;;27.25;8.10;100824.50;5134629;28;20333;-75
2022/05/04 09:54:14;;;;;;;;;;;;;;;27.32;7.87;100827.75;5134721;28;20002;-75
2022/05/04 09:56:39;;;;;;;;;;;;;;;27.39;7.79;100811.78;5134566;28;19915;-75
2022/05/04 09:59:05;;;;;;;;;;;;;;;27.37;7.91;100826.91;5134324;28;20296;-76
2022/05/04 10:01:31;;;;;;;;;;;;;;;27.39;7.91;100827.44;5134386;28;19916;-76
2022/05/04 10:03:59;;;;;;;;;;;;;;;27.36;7.92;100826.09;5134790;28;19968;-75
2022/05/04 10:06:24;;;;;;;;;;;;;;;27.36;7.71;100826.09;5134707;28;20362;-74
2022/05/04 10:08:49;;;;;;;;;;;;;;;27.26;7.81;100821.47;5135049;28;19916;-76
2022/05/04 10:11:15;;;;;;;;;;;;;;;27.29;7.88;100820.13;5135277;28;19915;-76
2022/05/04 10:13:40;;;;;;;;;;;;;;;27.25;7.80;100824.50;5134268;28;20002;-75
2022/05/04 10:16:08;;;;;;;;;;;;;;;27.22;8.10;100830.59;5134459;28;20377;-74
2022/05/04 10:18:34;;;;;;;;;;;;;;;27.20;8.05;100830.06;5133903;28;19915;-75
2022/05/04 10:21:12;;;;;;;;;;;;;;;27.24;8.26;100829.19;5115544;28;20056;-74
2022/05/04 10:23:39;;;;;;;;;;;;;;;27.19;7.89;100826.50;5134023;28;19923;-73
2022/05/04 10:26:05;;;;;;;;;;;;;;;27.16;7.99;100827.06;5135027;27;19943;-75
2022/05/04 10:28:36;;;;;;;;;;;;;;;27.17;7.94;100823.22;5138539;27;20298;-76
2022/05/04 10:31:02;;;;;;;;;;;;;;;27.12;7.95;100821.34;5139224;27;20011;-75
2022/05/04 10:33:31;;;;;;;;;;;;;;;27.09;7.92;100826.59;5119746;27;19923;-76
2022/05/04 10:35:56;;;;;;;;;;;;;;;27.08;7.82;100814.81;5137907;27;19935;-76
2022/05/04 10:38:28;;;;;;;;;;;;;;;27.14;7.67;100821.88;5138526;27;19922;-77
2022/05/04 10:40:54;;;;;;;;;;;;;;;27.15;7.87;100815.28;5138490;27;19972;-76
2022/05/04 10:43:36;;;;;;;;;;;;;;;27.17;7.70;100820.50;5138650;27;19984;-78
2022/05/04 10:46:10;;;;;;;;;;;;;;;27.14;7.75;100824.59;5138060;27;19991;-75
2022/05/04 10:48:36;;;;;;;;;;;;;;;27.16;7.66;100832.56;5137977;27;19923;-75
2022/05/04 10:51:02;;;;;;;;;;;;;;;27.13;7.73;100820.25;5138011;27;19922;-75
2022/05/04 10:53:28;;;;;;;;;;;;;;;27.07;7.82;100818.66;5137722;27;20010;-75
2022/05/04 10:55:55;;;;;;;;;;;;;;;27.08;7.70;100816.72;5138136;27;19947;-76
2022/05/04 10:58:46;;;;;;;;;;;;;;;27.09;7.67;100821.91;5137504;27;19915;-75
2022/05/04 11:01:12;;;;;;;;;;;;;;;27.02;7.61;100821.44;5133421;27;19922;-75
2022/05/04 11:03:38;;;;;;;;;;;;;;;27.06;7.82;100828.00;5137370;27;19915;-74
2022/05/04 11:06:09;;;;;;;;;;;;;;;27.09;7.79;100832.88;5137542;27;19916;-75
2022/05/04 11:08:35;;;;;;;;;;;;;;;27.04;7.80;100826.63;5137563;27;19919;-75
2022/05/04 11:11:01;;;;;;;;;;;;;;;27.00;7.62;100833.81;5119258;27;20309;-76
2022/05/04 11:13:26;;;;;;;;;;;;;;;27.02;7.64;100840.63;5137384;27;19915;-72
2022/05/04 11:15:52;;;;;;;;;;;;;;;27.03;7.62;100825.81;5119251;27;19916;-72
2022/05/04 11:18:19;;;;;;;;;;;;;;;27.07;7.56;100835.09;5137417;27;19919;-72
2022/05/04 11:20:47;;;;;;;;;;;;;;;27.08;7.68;100836.75;5137445;27;19916;-72
2022/05/04 11:23:12;;;;;;;;;;;;;;;27.06;7.90;100830.75;5119063;27;19972;-72
2022/05/04 11:25:38;;;;;;;;;;;;;;;26.99;7.87;100830.22;5137033;27;19927;-74
2022/05/04 11:28:03;;;;;;;;;;;;;;;25.52;8.59;100828.75;5136995;27;20325;-74
2022/05/04 11:30:28;;;;;;;;;;;;;;;25.85;8.34;100826.47;5136816;27;19920;-74
2022/05/04 11:32:54;;;;;;;;;;;;;;;25.66;8.28;100823.53;5119357;27;19922;-75
2022/05/04 11:35:19;;;;;;;;;;;;;;;25.98;8.18;100819.63;5136874;27;20302;-75
2022/05/04 11:37:44;;;;;;;;;;;;;;;26.19;7.78;100817.59;5136033;27;19951;-73
2022/05/04 11:40:11;;;;;;;;;;;;;;;25.88;8.10;100825.91;5136994;27;20357;-73
2022/05/04 11:42:36;;;;;;;;;;;;;;;26.38;7.82;100813.09;5136827;27;19975;-74
2022/05/04 11:45:02;;;;;;;;;;;;;;;26.22;7.89;100822.53;5137033;27;19999;-73
2022/05/04 11:47:27;;;;;;;;;;;;;;;26.64;7.75;100820.38;5137176;27;19924;-75
2022/05/04 11:49:53;;;;;;;;;;;;;;;26.85;7.60;100821.03;5118305;27;20007;-75
2022/05/04 11:52:18;;;;;;;;;;;;;;;27.10;7.34;100812.59;5118314;27;20329;-75
2022/05/04 11:54:44;;;;;;;;;;;;;;;27.35;7.44;100806.06;5118250;27;19959;-74
2022/05/04 11:57:13;;;;;;;;;;;;;;;27.40;7.25;100807.94;5136605;27;20003;-76
2022/05/04 11:59:38;;;;;;;;;;;;;;;27.46;7.36;100819.69;5136733;27;19916;-75
2022/05/04 12:02:03;;;;;;;;;;;;;;;27.48;7.36;100807.31;5118847;27;19915;-74
2022/05/04 12:04:28;;;;;;;;;;;;;;;27.51;7.40;100809.47;5117994;27;19937;-74
2022/05/04 12:06:54;;;;;;;;;;;;;;;27.57;7.55;100806.66;5136548;27;19998;-74
2022/05/04 12:09:19;;;;;;;;;;;;;;;27.50;7.39;100805.06;5118471;27;20006;-75
2022/05/04 12:11:45;;;;;;;;;;;;;;;27.49;7.61;100803.47;5117725;27;20373;-75
2022/05/04 12:14:10;;;;;;;;;;;;;;;27.51;7.54;100806.72;5136258;27;20269;-75
2022/05/04 12:16:36;;;;;;;;;;;;;;;27.44;7.51;100795.28;5136040;27;20384;-74
2022/05/04 12:19:01;;;;;;;;;;;;;;;27.47;7.54;100799.34;5136397;27;19919;-75
2022/05/04 12:21:26;;;;;;;;;;;;;;;27.47;7.58;100797.41;5135492;27;19915;-75
2022/05/04 12:23:52;;;;;;;;;;;;;;;27.43;7.48;100792.81;5136001;27;19915;-75
2022/05/04 12:26:17;;;;;;;;;;;;;;;27.40;7.48;100794.22;5135872;27;19962;-75
2022/05/04 12:28:43;;;;;;;;;;;;;;;27.43;7.29;100790.88;5135884;27;19922;-75
2022/05/04 12:33:53;;;;;;;;;;;;;;;27.39;7.52;100786.25;5136107;27;20261;-74
2022/05/04 12:36:18;;;;;;;;;;;;;;;27.34;7.47;100789.91;5135615;27;19964;-74
2022/05/04 12:38:47;;;;;;;;;;;;;;;27.35;7.54;100791.50;5135470;27;19976;-74
2022/05/04 12:41:15;;;;;;;;;;;;;;;27.31;7.37;100779.50;5117984;27;19916;-74
2022/05/04 12:43:40;;;;;;;;;;;;;;;27.30;7.47;100784.19;5117835;27;19923;-73
2022/05/04 12:46:09;;;;;;;;;;;;;;;27.22;7.35;100786.72;5135822;27;19920;-73
2022/05/04 12:48:35;;;;;;;;;;;;;;;27.20;7.56;100783.41;5117198;27;20363;-73
2022/05/04 12:51:00;;;;;;;;;;;;;;;27.23;7.33;100802.03;5135413;27;19968;-73
2022/05/04 12:53:26;;;;;;;;;;;;;;;27.28;7.42;100804.75;5117110;27;19990;-74
2022/05/04 12:58:35;;;;;;;;;;;;;;;27.24;7.56;100800.94;5135718;27;19922;-75
2022/05/04 13:01:01;;;;;;;;;;;;;;;27.22;7.47;100798.50;5135687;27;19915;-76
2022/05/04 13:03:26;;;;;;;;;;;;;;;27.20;7.53;100799.88;5135548;27;20056;-75
2022/05/04 13:05:51;;;;;;;;;;;;;;;27.19;7.56;100798.25;5135175;27;20353;-73
2022/05/04 13:08:16;;;;;;;;;;;;;;;27.17;7.35;100790.31;5135431;27;19922;-74
2022/05/04 13:10:42;;;;;;;;;;;;;;;27.14;7.30;100797.19;5135310;27;20349;-74
2022/05/04 13:13:07;;;;;;;;;;;;;;;27.12;7.44;100802.13;5135113;27;19946;-74